Time;durP1;ratioP1;P1;durP2;ratioP2;P2;SDS_P1;SDS_P2;PMS_P1;PMS_P2;Temp;Humidity;BMP_temperature;BMP_pressure;BME280_temperature;BME280_humidity;BME280_pressure;Samples;Min_cycle;Max_cycle;Signal;HPM_P1;HPM_P2
2023/09/10 00:02:16;;;;;;;2.78;1.42;;;18.10;60.60;;;;;;5030858;28;20111;-69
2023/09/10 00:04:42;;;;;;;1.05;0.50;;;18.10;60.50;;;;;;5031577;28;20037;-69
2023/09/10 00:07:08;;;;;;;0.40;0.40;;;18.10;60.50;;;;;;5031137;28;20033;-69
2023/09/10 00:09:34;;;;;;;1.27;0.75;;;18.00;60.60;;;;;;5031472;28;20540;-69
2023/09/10 00:12:00;;;;;;;1.40;0.80;;;18.00;60.70;;;;;;5030282;28;20125;-69
2023/09/10 00:14:26;;;;;;;1.23;0.77;;;17.90;61.00;;;;;;5031393;28;20045;-69
2023/09/10 00:16:52;;;;;;;1.17;0.93;;;17.90;61.00;;;;;;5030893;28;20084;-69
2023/09/10 00:19:18;;;;;;;0.73;0.40;;;17.90;61.20;;;;;;5031326;28;20056;-70
2023/09/10 00:21:44;;;;;;;1.08;0.70;;;17.80;61.40;;;;;;5030511;28;20029;-69
2023/09/10 00:24:11;;;;;;;1.83;0.73;;;17.70;62.50;;;;;;5031150;28;20437;-69
2023/09/10 00:26:37;;;;;;;1.17;0.80;;;17.70;61.80;;;;;;5029798;28;20040;-69
2023/09/10 00:29:03;;;;;;;0.80;0.60;;;17.70;61.90;;;;;;5029958;28;20045;-69
2023/09/10 00:31:29;;;;;;;1.02;0.55;;;17.70;62.10;;;;;;5030415;28;20040;-69
2023/09/10 00:33:55;;;;;;;2.53;1.30;;;17.70;62.20;;;;;;5031248;28;20057;-69
2023/09/10 00:36:21;;;;;;;3.50;1.27;;;17.70;62.00;;;;;;5030848;28;20540;-69
2023/09/10 00:38:47;;;;;;;1.15;0.98;;;17.80;62.10;;;;;;5031180;28;20056;-69
2023/09/10 00:41:13;;;;;;;1.55;0.80;;;17.80;61.90;;;;;;5030193;28;20068;-69
2023/09/10 00:43:39;;;;;;;1.20;0.73;;;17.70;62.30;;;;;;5029596;28;20033;-70
2023/09/10 00:46:06;;;;;;;0.43;0.40;;;17.70;62.10;;;;;;5031388;28;20164;-69
2023/09/10 00:48:32;;;;;;;0.70;0.50;;;17.60;61.50;;;;;;5029701;28;20042;-69
2023/09/10 00:50:58;;;;;;;;;;;17.70;62.30;;;;;;5029507;28;20044;-69
2023/09/10 00:53:25;;;;;;;1.20;0.85;;;17.60;62.00;;;;;;5049184;28;20388;-69
2023/09/10 00:55:52;;;;;;;1.30;0.77;;;17.60;61.80;;;;;;5034425;28;20033;-69
2023/09/10 00:58:18;;;;;;;0.77;0.40;;;17.50;61.50;;;;;;5050277;28;20107;-69
2023/09/10 01:00:44;;;;;;;;;;;17.50;62.10;;;;;;5034451;28;20034;-69
2023/09/10 01:03:11;;;;;;;0.40;0.40;;;17.40;62.00;;;;;;5033312;28;19913;-69
2023/09/10 01:05:37;;;;;;;1.20;0.85;;;17.30;62.10;;;;;;5033069;28;20038;-69
2023/09/10 01:08:03;;;;;;;1.45;1.00;;;17.40;62.50;;;;;;5034409;28;20398;-69
2023/09/10 01:11:14;;;;;;;1.00;0.68;;;17.30;62.10;;;;;;5032003;28;20120;-69
2023/09/10 01:14:20;;;;;;;0.90;0.40;;;17.40;62.60;;;;;;5032792;28;20037;-69
2023/09/10 01:17:08;;;;;;;1.45;0.90;;;17.40;62.80;;;;;;5033754;28;20109;-69
2023/09/10 01:19:53;;;;;;;1.27;0.65;;;17.40;62.80;;;;;;5016099;28;20029;-69
2023/09/10 01:22:56;;;;;;;0.57;0.47;;;17.30;63.20;;;;;;5033435;28;20076;-69
2023/09/10 01:25:23;;;;;;;1.70;0.93;;;17.20;63.30;;;;;;5033808;28;20045;-70
2023/09/10 01:27:49;;;;;;;2.25;1.05;;;17.20;63.10;;;;;;5032841;28;20029;-69
2023/09/10 01:30:15;;;;;;;0.45;0.45;;;17.20;63.10;;;;;;5031650;28;20052;-70
2023/09/10 01:33:18;;;;;;;;;;;17.10;63.20;;;;;;5033339;28;20108;-69
2023/09/10 01:36:09;;;;;;;1.17;0.98;;;17.10;63.10;;;;;;5033611;28;19921;-69
2023/09/10 01:38:54;;;;;;;0.47;0.47;;;17.10;63.40;;;;;;5033718;28;20490;-71
2023/09/10 01:41:22;;;;;;;1.67;0.95;;;17.00;63.50;;;;;;5032770;28;20116;-69
2023/09/10 01:43:49;;;;;;;1.10;0.63;;;17.00;63.30;;;;;;5033286;28;20033;-71
2023/09/10 01:46:16;;;;;;;1.77;1.05;;;16.90;63.40;;;;;;5032117;28;20033;-69
2023/09/10 01:48:43;;;;;;;1.58;0.95;;;16.90;63.40;;;;;;5032284;28;20033;-71
2023/09/10 01:51:10;;;;;;;12.43;1.17;;;16.90;63.50;;;;;;5032703;28;20516;-71
2023/09/10 01:53:36;;;;;;;2.53;1.27;;;17.00;63.60;;;;;;5032175;28;20087;-69
2023/09/10 01:56:02;;;;;;;1.15;0.73;;;17.00;63.80;;;;;;5032847;28;20038;-69
2023/09/10 01:58:29;;;;;;;2.08;1.15;;;17.00;63.90;;;;;;5032287;28;20037;-71
2023/09/10 02:00:55;;;;;;;1.15;0.70;;;17.00;64.10;;;;;;5031166;28;20042;-69
2023/09/10 02:03:21;;;;;;;1.60;0.82;;;16.90;64.10;;;;;;5033436;28;20052;-71
2023/09/10 02:05:47;;;;;;;1.52;0.82;;;16.90;64.30;;;;;;5031912;28;20142;-71
2023/09/10 02:08:14;;;;;;;0.55;0.40;;;16.90;64.30;;;;;;5033180;28;20372;-71
2023/09/10 02:10:41;;;;;;;1.90;0.85;;;17.00;64.30;;;;;;5030971;28;20042;-71
2023/09/10 02:13:07;;;;;;;0.60;0.40;;;16.90;64.50;;;;;;5033178;28;20395;-71
2023/09/10 02:15:33;;;;;;;0.30;0.30;;;17.00;64.20;;;;;;5031565;28;20049;-71
2023/09/10 02:17:59;;;;;;;1.23;0.70;;;17.00;64.20;;;;;;5033021;28;20398;-72
2023/09/10 02:20:25;;;;;;;0.70;0.38;;;16.90;64.10;;;;;;5030604;28;20501;-71
2023/09/10 02:22:51;;;;;;;0.88;0.50;;;16.90;64.10;;;;;;5031886;28;20026;-72
2023/09/10 02:25:17;;;;;;;0.57;0.50;;;16.90;63.90;;;;;;5031372;28;20091;-69
2023/09/10 02:27:43;;;;;;;;;;;16.90;64.00;;;;;;5032307;28;20041;-71
2023/09/10 02:30:09;;;;;;;1.27;0.85;;;16.80;63.90;;;;;;5032122;28;19985;-71
2023/09/10 02:32:37;;;;;;;1.42;0.90;;;16.80;63.30;;;;;;5032754;28;20033;-71
2023/09/10 02:35:03;;;;;;;0.68;0.30;;;16.70;63.90;;;;;;5032721;28;20482;-71
2023/09/10 02:37:31;;;;;;;1.27;0.47;;;16.70;63.60;;;;;;5014808;28;20030;-71
2023/09/10 02:39:57;;;;;;;0.30;0.30;;;16.70;64.10;;;;;;5014855;28;20492;-71
2023/09/10 02:42:23;;;;;;;1.80;1.15;;;16.70;64.10;;;;;;5030293;28;20030;-71
2023/09/10 02:44:49;;;;;;;0.88;0.70;;;16.70;64.00;;;;;;5032394;28;20568;-71
2023/09/10 02:47:15;;;;;;;0.35;0.35;;;16.60;63.90;;;;;;5030573;28;20033;-71
2023/09/10 02:49:41;;;;;;;1.90;0.52;;;16.60;64.00;;;;;;5032563;28;20490;-71
2023/09/10 02:52:07;;;;;;;0.93;0.47;;;16.60;64.10;;;;;;5013830;28;20057;-71
2023/09/10 02:54:52;;;;;;;1.70;1.00;;;16.60;64.40;;;;;;5014618;28;20059;-71
2023/09/10 02:57:18;;;;;;;1.48;0.77;;;16.60;64.60;;;;;;5030632;28;20514;-71
2023/09/10 02:59:44;;;;;;;0.85;0.50;;;16.60;64.70;;;;;;5031133;28;20050;-71
2023/09/10 03:02:10;;;;;;;1.23;0.68;;;16.60;64.70;;;;;;5030206;28;20152;-71
2023/09/10 03:04:36;;;;;;;0.98;0.55;;;16.60;64.70;;;;;;5030944;28;20041;-71
2023/09/10 03:07:02;;;;;;;1.10;0.60;;;16.60;64.80;;;;;;5031742;28;20423;-71
2023/09/10 03:09:28;;;;;;;;;;;16.50;65.00;;;;;;5031355;28;20045;-71
2023/09/10 03:12:33;;;;;;;;;;;16.40;64.90;;;;;;5031677;28;19921;-71
2023/09/10 03:14:58;;;;;;;;;;;16.50;65.40;;;;;;5032444;28;20023;-71
2023/09/10 03:17:24;;;;;;;;;;;16.50;65.30;;;;;;5064435;28;19913;-71
2023/09/10 03:19:50;;;;;;;;;;;16.50;65.30;;;;;;5031360;28;19927;-71
2023/09/10 03:22:16;;;;;;;;;;;16.50;65.20;;;;;;5031559;28;19917;-71
2023/09/10 03:24:42;;;;;;;;;;;16.50;65.00;;;;;;5031399;28;20281;-71
2023/09/10 03:27:08;;;;;;;;;;;16.50;64.90;;;;;;5031945;28;19916;-71
2023/09/10 03:29:35;;;;;;;;;;;16.50;64.50;;;;;;5064490;28;19921;-71
2023/09/10 03:32:06;;;;;;;;;;;16.50;64.60;;;;;;5031463;28;20289;-71
2023/09/10 03:34:32;;;;;;;;;;;16.50;64.60;;;;;;5031175;28;19936;-71
2023/09/10 03:36:58;;;;;;;;;;;16.40;64.70;;;;;;5031924;28;19917;-71
2023/09/10 03:39:24;;;;;;;;;;;16.40;64.10;;;;;;5030964;28;19920;-71
2023/09/10 03:41:52;;;;;;;;;;;16.30;64.80;;;;;;5030109;28;20378;-71
2023/09/10 03:44:18;;;;;;;;;;;16.30;64.20;;;;;;5030753;28;19925;-71
2023/09/10 03:46:44;;;;;;;;;;;16.20;63.90;;;;;;5014247;28;20180;-71
2023/09/10 03:49:10;;;;;;;;;;;16.10;63.90;;;;;;5014124;28;19921;-71
2023/09/10 03:51:38;;;;;;;;;;;16.20;64.00;;;;;;5031565;28;20179;-71
2023/09/10 03:54:04;;;;;;;;;;;16.10;63.90;;;;;;5031009;28;20231;-71
2023/09/10 03:56:30;;;;;;;;;;;16.10;64.00;;;;;;5031654;28;19940;-71
2023/09/10 03:58:56;;;;;;;;;;;16.10;64.30;;;;;;5032053;28;19921;-71
2023/09/10 04:01:22;;;;;;;;;;;16.10;64.70;;;;;;5029863;28;20349;-71
2023/09/10 04:03:48;;;;;;;;;;;16.10;64.80;;;;;;5030823;28;20329;-71
2023/09/10 04:06:14;;;;;;;;;;;16.10;64.30;;;;;;5031642;28;19920;-71
2023/09/10 04:08:40;;;;;;;;;;;16.00;64.30;;;;;;5030678;28;19913;-71
2023/09/10 04:11:08;;;;;;;;;;;16.00;64.50;;;;;;5030889;28;19924;-71
2023/09/10 04:13:34;;;;;;;;;;;16.00;64.60;;;;;;5032015;28;20282;-71
2023/09/10 04:15:59;;;;;;;;;;;16.00;64.70;;;;;;5030087;28;19913;-71
2023/09/10 04:18:25;;;;;;;;;;;16.00;64.90;;;;;;5030623;28;19983;-71
2023/09/10 04:20:51;;;;;;;;;;;16.10;64.80;;;;;;5063067;28;19921;-71
2023/09/10 04:23:17;;;;;;;;;;;16.00;64.60;;;;;;5031814;28;19924;-71
2023/09/10 04:25:43;;;;;;;;;;;16.00;64.60;;;;;;5030772;28;19917;-71
2023/09/10 04:28:09;;;;;;;;;;;15.90;64.10;;;;;;5033094;28;20389;-71
2023/09/10 04:30:35;;;;;;;;;;;15.90;64.30;;;;;;5035055;28;20328;-71
2023/09/10 04:33:01;;;;;;;;;;;15.90;64.60;;;;;;5034513;28;19913;-71
2023/09/10 04:35:26;;;;;;;;;;;15.90;64.60;;;;;;5033703;28;20404;-71
2023/09/10 04:37:52;;;;;;;;;;;15.80;64.50;;;;;;5034674;28;20284;-71
2023/09/10 04:40:18;;;;;;;;;;;15.80;64.50;;;;;;5034875;28;20284;-71
2023/09/10 04:42:44;;;;;;;;;;;15.70;64.60;;;;;;5035441;28;19913;-71
2023/09/10 04:45:10;;;;;;;;;;;15.70;64.30;;;;;;5034786;28;19927;-71
2023/09/10 04:47:36;;;;;;;;;;;15.70;64.00;;;;;;5034015;28;19917;-71
2023/09/10 04:50:03;;;;;;;;;;;15.70;64.00;;;;;;5035433;28;20016;-71
2023/09/10 04:52:29;;;;;;;;;;;15.70;63.80;;;;;;5034909;28;20382;-71
2023/09/10 04:54:55;;;;;;;;;;;15.70;63.40;;;;;;5035275;28;19920;-71
2023/09/10 04:57:20;;;;;;;;;;;15.60;63.10;;;;;;5033433;28;20285;-71
2023/09/10 04:59:46;;;;;;;;;;;15.50;63.10;;;;;;5017364;28;19917;-71
2023/09/10 05:02:12;;;;;;;;;;;15.50;63.10;;;;;;5032842;28;19928;-71
2023/09/10 05:04:38;;;;;;;;;;;15.50;63.60;;;;;;5033812;28;20728;-71
2023/09/10 05:07:04;;;;;;;;;;;15.50;63.70;;;;;;5034598;28;20004;-71
2023/09/10 05:09:30;;;;;;;;;;;15.50;63.70;;;;;;5035072;28;19916;-71
2023/09/10 05:11:57;;;;;;;;;;;15.60;63.50;;;;;;5033876;28;20012;-71
2023/09/10 05:14:24;;;;;;;;;;;15.50;63.90;;;;;;5033643;28;20469;-71
2023/09/10 05:16:50;;;;;;;;;;;15.50;63.40;;;;;;5033202;28;20350;-71
2023/09/10 05:19:15;;;;;;;;;;;15.60;64.30;;;;;;5034594;28;19921;-71
2023/09/10 05:21:41;;;;;;;;;;;15.70;64.20;;;;;;5032690;28;19927;-71
2023/09/10 05:24:07;;;;;;;;;;;15.80;64.10;;;;;;5016836;28;20007;-71
2023/09/10 05:26:34;;;;;;;;;;;15.80;65.30;;;;;;5033259;28;19967;-71
2023/09/10 05:29:00;;;;;;;;;;;15.90;64.70;;;;;;5034564;28;19927;-71
2023/09/10 05:31:26;;;;;;;;;;;15.90;65.40;;;;;;5032520;28;19948;-71
2023/09/10 05:33:51;;;;;;;;;;;16.00;65.50;;;;;;5066560;28;19967;-71
2023/09/10 05:36:17;;;;;;;;;;;16.10;65.30;;;;;;5016395;28;19927;-71
2023/09/10 05:38:43;;;;;;;;;;;16.10;66.50;;;;;;5032771;28;19913;-71
2023/09/10 05:41:09;;;;;;;;;;;16.10;66.50;;;;;;5033160;28;19925;-71
2023/09/10 05:43:35;;;;;;;;;;;16.20;66.50;;;;;;5049342;28;20007;-71
2023/09/10 05:46:01;;;;;;;;;;;16.30;66.60;;;;;;5032377;28;19946;-71
2023/09/10 05:48:27;;;;;;;;;;;16.30;66.80;;;;;;5033059;28;19913;-71
2023/09/10 05:51:11;;;;;;;;;;;16.40;66.90;;;;;;5032050;28;19921;-71
2023/09/10 05:53:40;;;;;;;;;;;16.40;66.90;;;;;;5016298;28;19920;-71
2023/09/10 05:56:06;;;;;;;;;;;16.50;66.90;;;;;;5016017;28;19917;-71
2023/09/10 05:58:32;;;;;;;;;;;16.60;67.10;;;;;;5032810;28;19967;-71
2023/09/10 06:00:57;;;;;;;;;;;16.70;66.40;;;;;;5032918;28;19929;-71
2023/09/10 06:03:23;;;;;;;;;;;16.80;67.10;;;;;;5016222;28;20004;-71
2023/09/10 06:05:49;;;;;;;;;;;16.80;67.40;;;;;;5032607;28;20353;-71
2023/09/10 06:08:15;;;;;;;;;;;16.90;66.70;;;;;;5032512;28;19913;-71
2023/09/10 06:10:41;;;;;;;;;;;16.90;67.30;;;;;;5033141;28;19928;-71
2023/09/10 06:13:07;;;;;;;;;;;17.00;67.20;;;;;;5032541;28;19995;-71
2023/09/10 06:15:33;;;;;;;;;;;17.10;67.10;;;;;;5033549;28;20349;-71
2023/09/10 06:17:59;;;;;;;;;;;17.20;67.00;;;;;;5032632;28;20289;-71
2023/09/10 06:20:24;;;;;;;;;;;17.30;66.70;;;;;;5032482;28;19931;-71
2023/09/10 06:22:52;;;;;;;;;;;17.40;66.60;;;;;;5033878;28;20351;-71
2023/09/10 06:25:19;;;;;;;;;;;17.50;66.40;;;;;;5032025;28;20258;-71
2023/09/10 06:27:44;;;;;;;;;;;17.60;65.80;;;;;;5033538;28;19913;-71
2023/09/10 06:30:11;;;;;;;;;;;17.70;66.50;;;;;;5032559;28;20288;-71
2023/09/10 06:32:36;;;;;;;;;;;17.80;65.70;;;;;;5033418;28;19991;-71
2023/09/10 06:35:02;;;;;;;;;;;17.90;66.50;;;;;;5032003;28;20023;-71
2023/09/10 06:37:28;;;;;;;;;;;18.00;66.60;;;;;;5031780;28;19913;-71
2023/09/10 06:39:54;;;;;;;;;;;18.10;66.60;;;;;;5065145;28;19966;-71
2023/09/10 06:42:20;;;;;;;;;;;18.20;66.80;;;;;;5031024;28;19921;-71
2023/09/10 06:44:46;;;;;;;;;;;18.30;66.90;;;;;;5032937;28;19925;-71
2023/09/10 06:47:12;;;;;;;;;;;18.40;66.50;;;;;;5032659;28;20391;-71
2023/09/10 06:49:38;;;;;;;;;;;18.40;66.60;;;;;;5064370;28;19932;-71
2023/09/10 06:52:05;;;;;;;;;;;18.50;66.20;;;;;;5032336;28;19923;-71
2023/09/10 06:54:32;;;;;;;;;;;18.60;66.30;;;;;;5031798;28;19921;-69
2023/09/10 06:57:01;;;;;;;;;;;18.70;65.80;;;;;;5031209;28;20476;-71
2023/09/10 06:59:45;;;;;;;;;;;18.80;67.10;;;;;;5031807;28;19931;-71
2023/09/10 07:02:11;;;;;;;;;;;18.80;66.20;;;;;;5030990;28;20040;-71
2023/09/10 07:04:47;;;;;;;;;;;18.90;66.90;;;;;;5032908;28;20331;-71
2023/09/10 07:07:14;;;;;;;;;;;18.90;66.90;;;;;;5032436;28;19913;-71
2023/09/10 07:09:40;;;;;;;;;;;19.00;66.70;;;;;;5031651;28;19921;-71
2023/09/10 07:12:06;;;;;;;;;;;19.10;66.80;;;;;;5031624;28;20028;-71
2023/09/10 07:14:32;;;;;;;;;;;19.20;66.40;;;;;;5031450;28;19925;-71
2023/09/10 07:16:58;;;;;;;;;;;19.40;66.40;;;;;;5030883;28;19954;-71
2023/09/10 07:19:24;;;;;;;;;;;19.50;66.40;;;;;;5032608;28;19970;-71
2023/09/10 07:21:50;;;;;;;;;;;19.60;66.30;;;;;;5031761;28;19946;-71
2023/09/10 07:24:15;;;;;;;;;;;20.00;66.20;;;;;;5032555;28;19925;-71
2023/09/10 07:26:43;;;;;;;;;;;20.70;65.00;;;;;;5030915;28;19919;-71
2023/09/10 07:29:09;;;;;;;;;;;21.40;63.90;;;;;;5047747;28;19924;-71
2023/09/10 07:31:35;;;;;;;;;;;22.10;63.50;;;;;;5031510;28;19917;-71
2023/09/10 07:34:02;;;;;;;;;;;22.80;62.20;;;;;;5030865;28;19920;-71
2023/09/10 07:36:29;;;;;;;;;;;23.60;60.70;;;;;;5047268;28;19917;-71
2023/09/10 07:38:55;;;;;;;;;;;24.30;58.60;;;;;;5031012;28;19970;-71
2023/09/10 07:41:21;;;;;;;;;;;25.00;57.50;;;;;;5031260;28;19967;-69
2023/09/10 07:43:47;;;;;;;;;;;25.70;54.20;;;;;;5030658;28;19971;-71
2023/09/10 07:46:13;;;;;;;;;;;26.50;51.40;;;;;;5031924;28;19913;-71
2023/09/10 07:48:39;;;;;;;;;;;27.00;50.50;;;;;;5030844;28;19913;-71
2023/09/10 07:51:05;;;;;;;;;;;27.60;47.10;;;;;;5031081;28;19929;-70
2023/09/10 07:53:31;;;;;;;;;;;28.40;45.40;;;;;;5030975;28;20389;-72
2023/09/10 07:55:57;;;;;;;;;;;28.90;43.00;;;;;;5030300;28;20019;-72
2023/09/10 07:58:23;;;;;;;;;;;29.50;41.50;;;;;;5032300;28;19956;-71
2023/09/10 08:00:52;;;;;;;;;;;30.10;40.80;;;;;;5031787;28;19927;-71
2023/09/10 08:03:18;;;;;;;;;;;30.70;38.00;;;;;;5036041;28;19944;-71
2023/09/10 08:05:44;;;;;;;;;;;31.30;36.40;;;;;;5036197;28;19960;-72
2023/09/10 08:08:09;;;;;;;;;;;31.80;35.10;;;;;;5033995;28;20274;-71
2023/09/10 08:10:35;;;;;;;;;;;32.40;34.00;;;;;;5035203;28;19925;-72
2023/09/10 08:13:03;;;;;;;;;;;32.90;32.00;;;;;;5035977;28;19963;-72
2023/09/10 08:15:49;;;;;;;;;;;33.50;31.60;;;;;;5035431;28;19967;-71
2023/09/10 08:18:16;;;;;;;;;;;34.00;31.10;;;;;;5034689;28;19913;-72
2023/09/10 08:20:43;;;;;;;;;;;34.50;29.60;;;;;;5033710;28;20293;-72
2023/09/10 08:23:09;;;;;;;;;;;34.70;28.20;;;;;;5035618;28;20426;-71
2023/09/10 08:25:35;;;;;;;;;;;35.10;28.60;;;;;;5033714;28;19917;-72
2023/09/10 08:28:02;;;;;;;;;;;35.70;27.60;;;;;;5034506;28;19920;-71
2023/09/10 08:30:28;;;;;;;;;;;36.10;27.50;;;;;;5033424;28;19932;-71
2023/09/10 08:32:54;;;;;;;;;;;36.60;26.20;;;;;;5034129;28;19916;-72
2023/09/10 08:35:21;;;;;;;;;;;37.10;26.00;;;;;;5033980;28;20435;-71
2023/09/10 08:37:47;;;;;;;;;;;37.60;25.00;;;;;;5034356;28;19917;-72
2023/09/10 08:40:15;;;;;;;;;;;37.90;24.30;;;;;;5033295;28;20008;-71
2023/09/10 08:43:19;;;;;;;;;;;38.30;23.40;;;;;;5034392;28;19913;-71
2023/09/10 08:45:45;;;;;;;;;;;38.90;23.50;;;;;;5034812;28;20297;-71
2023/09/10 08:48:12;;;;;;;;;;;39.50;23.00;;;;;;5034124;28;19913;-72
2023/09/10 08:50:38;;;;;;;;;;;39.90;21.90;;;;;;5034594;28;19925;-72
2023/09/10 08:53:05;;;;;;;;;;;40.50;21.40;;;;;;5034095;28;19984;-71
2023/09/10 08:55:31;;;;;;;;;;;40.80;20.70;;;;;;5033365;28;19936;-71
2023/09/10 08:57:57;;;;;;;;;;;41.10;21.10;;;;;;5035269;28;19952;-71
2023/09/10 09:00:23;;;;;;;;;;;41.60;19.60;;;;;;5032923;28;19929;-71
2023/09/10 09:02:50;;;;;;;;;;;42.10;19.70;;;;;;5033995;28;20520;-72
2023/09/10 09:05:15;;;;;;;;;;;42.50;18.90;;;;;;5034760;28;20473;-71
2023/09/10 09:07:41;;;;;;;;;;;42.80;19.70;;;;;;5035004;28;20362;-72
2023/09/10 09:10:09;;;;;;;;;;;43.20;19.40;;;;;;5034125;28;19921;-72
2023/09/10 09:12:37;;;;;;;;;;;43.80;18.10;;;;;;5032957;28;20000;-72
2023/09/10 09:15:04;;;;;;;;;;;44.40;17.90;;;;;;5033525;28;19921;-71
2023/09/10 09:17:29;;;;;;;;;;;44.80;17.50;;;;;;5033560;28;20274;-72
2023/09/10 09:19:58;;;;;;;;;;;44.90;17.10;;;;;;5034824;28;19975;-71
2023/09/10 09:22:28;;;;;;;;;;;45.30;16.50;;;;;;5032654;28;19917;-71
2023/09/10 09:24:55;;;;;;;;;;;45.80;16.10;;;;;;5034813;28;20396;-72
2023/09/10 09:27:23;;;;;;;;;;;46.30;15.80;;;;;;5032967;28;19913;-72
2023/09/10 09:29:50;;;;;;;;;;;46.50;15.10;;;;;;5033301;28;19921;-71
2023/09/10 09:32:16;;;;;;;;;;;46.80;15.20;;;;;;5032279;28;19947;-72
2023/09/10 09:34:41;;;;;;;;;;;47.00;15.10;;;;;;5032835;28;20015;-72
2023/09/10 09:37:07;;;;;;;;;;;47.50;14.90;;;;;;5032701;28;20590;-72
2023/09/10 09:39:34;;;;;;;;;;;47.90;14.60;;;;;;5034489;28;20004;-71
2023/09/10 09:42:00;;;;;;;;;;;48.10;14.50;;;;;;5032028;28;19952;-72
2023/09/10 09:44:27;;;;;;;;;;;48.60;14.50;;;;;;5033825;28;20003;-72
2023/09/10 09:46:56;;;;;;;;;;;49.00;13.70;;;;;;5016149;28;19913;-72
2023/09/10 09:49:22;;;;;;;;;;;49.30;13.50;;;;;;5033107;28;19960;-72
2023/09/10 09:51:48;;;;;;;;;;;49.60;13.20;;;;;;5032157;28;19925;-71
2023/09/10 09:54:14;;;;;;;;;;;50.00;13.20;;;;;;5031974;28;19932;-71
2023/09/10 09:56:42;;;;;;;;;;;50.40;12.60;;;;;;5032183;28;19913;-72
2023/09/10 09:59:10;;;;;;;;;;;50.50;11.70;;;;;;5033944;28;19970;-73
2023/09/10 10:01:39;;;;;;;;;;;50.50;12.00;;;;;;5033374;28;19917;-72
2023/09/10 10:04:05;;;;;;;;;;;51.00;12.20;;;;;;5032648;28;20353;-72
2023/09/10 10:06:31;;;;;;;;;;;51.10;11.90;;;;;;5015704;28;19920;-71
2023/09/10 10:08:57;;;;;;;;;;;51.10;12.10;;;;;;5032694;28;19921;-72
2023/09/10 10:11:43;;;;;;;;;;;50.80;11.80;;;;;;5042720;28;19982;-72
2023/09/10 10:14:09;;;;;;;;;;;49.50;12.60;;;;;;5053541;28;19975;-72
2023/09/10 10:16:37;;;;;;;;;;;49.30;13.20;;;;;;5052131;28;20278;-71
2023/09/10 10:19:03;;;;;;;;;;;50.10;11.90;;;;;;5053611;28;20291;-73
2023/09/10 10:21:29;;;;;;;;;;;50.60;11.10;;;;;;5034872;28;19987;-72
2023/09/10 10:23:56;;;;;;;;;;;51.40;11.10;;;;;;5052220;28;19917;-72
2023/09/10 10:26:23;;;;;;;;;;;51.80;10.90;;;;;;5050409;28;19931;-72
2023/09/10 10:28:49;;;;;;;;;;;51.90;11.50;;;;;;5053333;28;20297;-72
2023/09/10 10:31:16;;;;;;;;;;;52.00;11.20;;;;;;5051352;28;19916;-71
2023/09/10 10:34:04;;;;;;;;;;;51.40;11.10;;;;;;5052257;28;19912;-71
2023/09/10 10:36:53;;;;;;;;;;;50.00;11.40;;;;;;5051154;28;19917;-72
2023/09/10 10:39:26;;;;;;;;;;;48.30;12.60;;;;;;5052122;28;19920;-71
2023/09/10 10:41:53;;;;;;;;;;;47.40;12.60;;;;;;5036045;28;19917;-72
2023/09/10 10:44:38;;;;;;;;;;;47.30;12.80;;;;;;5033051;28;19925;-71
2023/09/10 10:47:22;;;;;;;;;;;46.10;14.10;;;;;;5049174;28;19927;-72
2023/09/10 10:50:08;;;;;;;;;;;45.80;14.80;;;;;;5021996;28;20374;-71
2023/09/10 10:52:35;;;;;;;;;;;45.20;15.00;;;;;;5011797;28;19921;-71
2023/09/10 10:55:02;;;;;;;;;;;44.70;15.00;;;;;;5012988;28;19928;-72
2023/09/10 10:57:28;;;;;;;;;;;44.60;14.80;;;;;;5033432;28;19913;-72
2023/09/10 10:59:55;;;;;;;;;;;45.80;14.10;;;;;;5031674;28;19932;-71
2023/09/10 11:02:22;;;;;;;;;;;46.20;14.30;;;;;;5030751;28;19924;-71
2023/09/10 11:05:07;;;;;;;;;;;45.10;14.80;;;;;;5031595;28;20008;-71
2023/09/10 11:07:34;;;;;;;;;;;43.90;15.60;;;;;;5031631;28;19920;-71
2023/09/10 11:10:38;;;;;;;;;;;42.90;16.10;;;;;;5031431;28;19975;-72
2023/09/10 11:13:23;;;;;;;;;;;43.10;16.80;;;;;;5032235;28;19936;-72
2023/09/10 11:16:04;;;;;;;;;;;45.00;15.00;;;;;;5030765;28;19952;-72
2023/09/10 11:18:36;;;;;;;;;;;45.60;14.00;;;;;;5031268;28;19916;-71
2023/09/10 11:21:14;;;;;;;;;;;46.00;14.20;;;;;;5030315;28;19928;-71
2023/09/10 11:23:58;;;;;;;;;;;46.40;13.80;;;;;;5031339;28;19913;-71
2023/09/10 11:26:44;;;;;;;;;;;46.90;13.20;;;;;;5031773;28;19924;-72
2023/09/10 11:29:09;;;;;;;;;;;47.50;13.10;;;;;;5014376;28;19921;-72
2023/09/10 11:31:38;;;;;;;;;;;47.20;13.30;;;;;;5029945;28;19995;-71
2023/09/10 11:34:31;;;;;;;;;;;46.30;14.20;;;;;;5032263;28;19925;-71
2023/09/10 11:37:04;;;;;;;;;;;46.50;14.10;;;;;;5029397;28;19917;-72
2023/09/10 11:39:32;;;;;;;;;;;47.80;12.80;;;;;;5031124;28;19928;-72
2023/09/10 11:42:00;;;;;;;;;;;49.80;12.00;;;;;;5030106;28;19928;-72
2023/09/10 11:44:26;;;;;;;;;;;51.00;10.60;;;;;;5013818;28;20041;-71
2023/09/10 11:46:53;;;;;;;;;;;50.70;10.20;;;;;;5030786;28;19970;-72
2023/09/10 11:49:20;;;;;;;;;;;50.20;11.70;;;;;;5030694;28;20358;-72
2023/09/10 11:51:48;;;;;;;;;;;49.00;11.70;;;;;;5044208;28;20300;-71
2023/09/10 11:54:19;;;;;;;;;;;48.20;12.40;;;;;;5041756;28;19921;-72
2023/09/10 11:57:04;;;;;;;;;;;49.10;12.10;;;;;;5014324;28;20390;-71
2023/09/10 11:59:30;;;;;;;;;;;50.60;10.20;;;;;;5014180;28;20451;-72
2023/09/10 12:01:57;;;;;;;;;;;50.80;9.50;;;;;;5013372;28;19924;-71
2023/09/10 12:04:41;;;;;;;;;;;49.80;10.10;;;;;;5032185;28;19921;-71
2023/09/10 12:07:07;;;;;;;;;;;48.10;11.40;;;;;;5031748;28;20236;-71
2023/09/10 12:09:33;;;;;;;;;;;47.30;12.30;;;;;;5032382;28;19921;-71
2023/09/10 12:12:20;;;;;;;;;;;47.30;12.50;;;;;;5029770;28;19928;-72
2023/09/10 12:14:46;;;;;;;;;;;46.80;12.80;;;;;;5030707;28;20416;-72
2023/09/10 12:17:12;;;;;;;;;;;46.60;13.50;;;;;;5031406;28;19913;-72
2023/09/10 12:19:38;;;;;;;;;;;46.20;12.80;;;;;;5030580;28;19925;-71
2023/09/10 12:22:09;;;;;;;;;;;46.20;13.90;;;;;;5029701;28;19952;-72
2023/09/10 12:24:53;;;;;;;;;;;45.80;13.50;;;;;;5031816;28;19921;-71
2023/09/10 12:27:19;;;;;;;;;;;47.30;12.50;;;;;;5030385;28;19917;-71
2023/09/10 12:29:45;;;;;;;;;;;49.50;12.00;;;;;;5030790;28;19929;-72
2023/09/10 12:32:11;;;;;;;;;;;50.80;10.50;;;;;;5009874;28;19918;-72
2023/09/10 12:34:37;;;;;;;;;;;52.30;10.30;;;;;;5011973;28;19968;-72
2023/09/10 12:37:03;;;;;;;;;;;53.60;9.10;;;;;;5010389;28;19925;-72
2023/09/10 12:39:31;;;;;;;;;;;54.20;8.10;;;;;;5019166;28;19936;-71
2023/09/10 12:44:42;;;;;;;;;;;54.60;8.40;;;;;;5021749;28;19948;-71
2023/09/10 12:47:08;;;;;;;;;;;54.80;8.00;;;;;;5010518;28;19957;-72
2023/09/10 12:49:34;;;;;;;;;;;55.40;8.70;;;;;;4997331;28;19921;-71
2023/09/10 12:52:00;;;;;;;;;;;55.80;7.50;;;;;;5013258;28;19929;-71
2023/09/10 12:54:26;;;;;;;;;;;55.90;8.10;;;;;;5015583;28;19917;-72
2023/09/10 12:56:52;;;;;;;;;;;55.70;8.00;;;;;;5023169;28;20012;-70
2023/09/10 12:59:37;;;;;;;;;;;55.80;8.50;;;;;;5050367;28;19940;-72
2023/09/10 13:02:04;;;;;;;;;;;56.60;8.10;;;;;;5033794;28;19923;-71
2023/09/10 13:04:30;;;;;;;;;;;57.40;8.20;;;;;;5033820;28;19921;-71
2023/09/10 13:06:56;;;;;;;;;;;57.70;8.10;;;;;;5034370;28;20023;-71
2023/09/10 13:09:21;;;;;;;;;;;57.60;7.70;;;;;;5050191;28;20396;-71
2023/09/10 13:11:48;;;;;;;;;;;57.80;8.10;;;;;;5016305;28;19924;-71
2023/09/10 13:14:14;;;;;;;;;;;58.00;7.70;;;;;;5033428;28;19967;-71
2023/09/10 13:16:39;;;;;;;;;;;58.20;7.90;;;;;;5034478;28;19941;-70
2023/09/10 13:19:05;;;;;;;;;;;58.40;7.50;;;;;;5034715;28;19932;-70
2023/09/10 13:21:31;;;;;;;;;;;58.30;7.80;;;;;;5032423;28;20048;-72
2023/09/10 13:23:57;;;;;;;;;;;58.80;7.60;;;;;;5034599;28;20395;-70
2023/09/10 13:26:23;;;;;;;;;;;58.90;7.30;;;;;;5034373;28;19988;-70
2023/09/10 13:28:49;;;;;;;;;;;58.90;7.30;;;;;;5033197;28;19921;-70
2023/09/10 13:31:15;;;;;;;;;;;58.80;7.30;;;;;;5033624;28;19924;-71
2023/09/10 13:33:40;;;;;;;;;;;58.60;6.90;;;;;;5034500;28;20369;-71
2023/09/10 13:36:06;;;;;;;;;;;58.30;7.70;;;;;;5033944;28;20399;-71
2023/09/10 13:38:32;;;;;;;;;;;58.60;7.30;;;;;;5049970;28;20373;-70
2023/09/10 13:40:58;;;;;;;;;;;58.60;6.60;;;;;;5033446;28;20335;-70
2023/09/10 13:43:24;;;;;;;;;;;59.20;7.20;;;;;;5049698;28;19923;-72
2023/09/10 13:45:50;;;;;;;;;;;59.10;6.70;;;;;;5034601;28;19996;-70
2023/09/10 13:48:16;;;;;;;;;;;59.10;7.10;;;;;;5034216;28;19920;-71
2023/09/10 13:50:42;;;;;;;;;;;59.20;6.50;;;;;;5032119;28;20004;-72
2023/09/10 13:53:07;;;;;;;;;;;58.70;6.60;;;;;;5034238;28;20007;-71
2023/09/10 13:55:33;;;;;;;;;;;58.40;6.70;;;;;;5032545;28;19971;-70
2023/09/10 13:57:59;;;;;;;;;;;58.10;7.00;;;;;;5032897;28;20007;-70
2023/09/10 14:00:25;;;;;;;;;;;57.90;7.00;;;;;;5031717;28;19968;-70
2023/09/10 14:02:51;;;;;;;;;;;57.60;6.80;;;;;;5032872;28;19913;-70
2023/09/10 14:05:17;;;;;;;;;;;57.40;7.00;;;;;;5032340;28;19996;-72
2023/09/10 14:07:43;;;;;;;;;;;57.20;7.30;;;;;;5034204;28;20015;-72
2023/09/10 14:10:09;;;;;;;;;;;57.50;7.60;;;;;;5031536;28;19921;-72